Time;durP1;ratioP1;P1;durP2;ratioP2;P2;SDS_P1;SDS_P2;PMS_P1;PMS_P2;Temp;Humidity;BMP_temperature;BMP_pressure;BME280_temperature;BME280_humidity;BME280_pressure;Samples;Min_cycle;Max_cycle;Signal;HPM_P1;HPM_P2
2022/12/31 00:00:05;;;;;;;;;;;23.90;99.90;;;;;;5013027;28;19932;-66
2022/12/31 00:02:32;;;;;;;;;;;23.90;99.90;;;;;;5012371;28;19928;-66
2022/12/31 00:04:59;;;;;;;;;;;23.90;99.90;;;;;;5012963;28;19921;-66
2022/12/31 00:07:25;;;;;;;;;;;23.90;99.90;;;;;;5012724;28;19932;-66
2022/12/31 00:09:53;;;;;;;;;;;23.80;99.90;;;;;;5012498;28;19926;-67
2022/12/31 00:12:20;;;;;;;;;;;23.90;99.90;;;;;;5011713;28;19997;-67
2022/12/31 00:14:46;;;;;;;;;;;23.70;99.90;;;;;;5013174;28;19956;-65
2022/12/31 00:17:13;;;;;;;;;;;23.70;99.90;;;;;;5012718;28;19993;-66
2022/12/31 00:19:40;;;;;;;;;;;23.60;99.90;;;;;;5012246;28;19920;-66
2022/12/31 00:22:06;;;;;;;;;;;23.60;99.90;;;;;;5012388;28;20000;-70
2022/12/31 00:24:34;;;;;;;;;;;23.50;99.90;;;;;;5012925;28;19967;-66
2022/12/31 00:27:01;;;;;;;;;;;23.40;99.90;;;;;;5012625;28;19920;-67
2022/12/31 00:29:27;;;;;;;;;;;23.30;99.90;;;;;;5010132;28;19917;-71
2022/12/31 00:31:54;;;;;;;;;;;23.10;99.90;;;;;;5012665;28;20364;-67
2022/12/31 00:34:21;;;;;;;;;;;23.10;99.90;;;;;;5011869;28;19917;-66
2022/12/31 00:36:47;;;;;;;;;;;23.20;99.90;;;;;;5012147;28;19921;-71
2022/12/31 00:39:14;;;;;;;;;;;23.40;99.90;;;;;;5011820;28;20271;-68
2022/12/31 00:41:42;;;;;;;;;;;23.50;99.90;;;;;;5012244;28;20276;-67
2022/12/31 00:44:11;;;;;;;;;;;23.70;99.90;;;;;;5012597;28;20008;-66
2022/12/31 00:46:37;;;;;;;;;;;23.80;99.90;;;;;;5012125;28;19917;-67
2022/12/31 00:49:05;;;;;;;;;;;23.80;99.90;;;;;;5011855;28;20276;-67
2022/12/31 00:51:31;;;;;;;;;;;23.70;99.90;;;;;;5011921;28;20257;-68
2022/12/31 00:53:58;;;;;;;;;;;23.80;99.90;;;;;;5011810;28;20414;-67
2022/12/31 00:56:26;;;;;;;;;;;23.90;99.90;;;;;;5011920;28;20352;-67
2022/12/31 00:58:53;;;;;;;;;;;24.30;99.90;;;;;;5011990;28;20392;-68
2022/12/31 01:01:21;;;;;;;;;;;24.80;99.90;;;;;;5011725;28;20439;-75
2022/12/31 01:03:49;;;;;;;;;;;25.40;99.90;;;;;;5011920;28;19917;-80
2022/12/31 01:06:16;;;;;;;;;;;25.80;99.90;;;;;;5012279;28;19917;-77
2022/12/31 01:08:43;;;;;;;;;;;26.30;99.90;;;;;;5012102;28;19909;-67
2022/12/31 01:11:18;;;;;;;;;;;26.60;99.90;;;;;;5012366;28;20011;-71
2022/12/31 01:13:53;;;;;;;;;;;27.00;99.90;;;;;;5012197;28;19920;-67
2022/12/31 01:16:21;;;;;;;;;;;27.10;99.90;;;;;;4992654;28;19968;-66
2022/12/31 01:18:49;;;;;;;;;;;27.30;99.90;;;;;;4992078;28;19910;-66
2022/12/31 01:21:15;;;;;;;;;;;27.70;99.90;;;;;;4999595;28;19913;-66
2022/12/31 01:23:42;;;;;;;;;;;27.70;99.90;;;;;;5011968;28;20276;-66
2022/12/31 01:26:11;;;;;;;;;;;28.00;99.90;;;;;;5012424;28;19913;-66
2022/12/31 01:28:38;;;;;;;;;;;28.40;99.90;;;;;;5011399;28;19913;-66
2022/12/31 01:31:05;;;;;;;;;;;28.60;99.90;;;;;;5012048;28;19952;-70
2022/12/31 01:33:32;;;;;;;;;;;28.50;99.90;;;;;;5010703;28;19913;-68
2022/12/31 01:36:03;;;;;;;;;;;28.20;99.90;;;;;;5010013;28;19917;-67
2022/12/31 01:38:30;;;;;;;;;;;28.50;99.90;;;;;;5003643;28;19922;-68
2022/12/31 01:40:56;;;;;;;;;;;28.80;99.90;;;;;;5013647;28;20379;-68
2022/12/31 01:43:23;;;;;;;;;;;28.90;99.90;;;;;;5011678;28;20328;-67
2022/12/31 01:45:51;;;;;;;;;;;28.90;99.90;;;;;;5010439;28;19929;-72
2022/12/31 01:48:20;;;;;;;;;;;29.00;99.90;;;;;;5011132;28;19924;-76
2022/12/31 01:50:47;;;;;;;;;;;29.00;99.90;;;;;;5003618;28;20344;-72
2022/12/31 01:53:15;;;;;;;;;;;28.50;99.90;;;;;;5010157;28;20004;-70
2022/12/31 01:55:45;;;;;;;;;;;27.90;99.90;;;;;;5012623;28;19917;-69
2022/12/31 01:58:18;;;;;;;;;;;27.30;99.90;;;;;;5015593;28;19914;-72
2022/12/31 02:00:45;;;;;;;;;;;26.80;99.90;;;;;;5011286;28;19932;-72
2022/12/31 02:03:12;;;;;;;;;;;26.50;99.90;;;;;;5009863;28;19909;-71
2022/12/31 02:05:39;;;;;;;;;;;26.50;99.90;;;;;;5011520;28;20260;-70
2022/12/31 02:08:06;;;;;;;;;;;26.40;99.90;;;;;;5011357;28;19910;-67
2022/12/31 02:10:32;;;;;;;;;;;26.20;99.90;;;;;;5011632;28;19921;-70
2022/12/31 02:12:59;;;;;;;;;;;26.20;99.90;;;;;;5011571;28;19915;-67
2022/12/31 02:15:39;;;;;;;;;;;26.10;99.90;;;;;;5011342;28;19920;-76
2022/12/31 02:18:28;;;;;;;;;;;26.00;99.90;;;;;;5014654;28;20383;-67
2022/12/31 02:21:17;;;;;;;;;;;25.80;99.90;;;;;;5015233;28;19909;-67
2022/12/31 02:24:01;;;;;;;;;;;25.50;99.90;;;;;;5015054;28;19917;-69
2022/12/31 02:26:46;;;;;;;;;;;25.30;99.90;;;;;;5014962;28;19917;-67
2022/12/31 02:29:39;;;;;;;;;;;25.10;99.90;;;;;;5014213;28;19944;-68
2022/12/31 02:32:09;;;;;;;;;;;24.90;99.90;;;;;;5012780;28;19910;-77
2022/12/31 02:34:37;;;;;;;;;;;24.90;99.90;;;;;;5014737;28;19921;-69
2022/12/31 02:37:06;;;;;;;;;;;24.90;99.90;;;;;;5014950;28;19977;-68
2022/12/31 02:39:33;;;;;;;;;;;24.90;99.90;;;;;;5014172;28;20338;-70
2022/12/31 02:42:01;;;;;;;;;;;24.80;99.90;;;;;;5014580;28;19910;-73
2022/12/31 02:44:31;;;;;;;;;;;24.90;99.90;;;;;;5015064;28;20333;-66
2022/12/31 02:47:07;;;;;;;;;;;24.80;99.90;;;;;;5014496;28;19913;-68
2022/12/31 02:49:37;;;;;;;;;;;24.90;99.90;;;;;;5013991;28;20284;-68
2022/12/31 02:52:20;;;;;;;;;;;24.90;99.90;;;;;;5014699;28;20388;-72
2022/12/31 02:54:53;;;;;;;;;;;25.00;99.90;;;;;;5014474;28;19967;-66
2022/12/31 02:57:20;;;;;;;;;;;25.10;99.90;;;;;;5014220;28;20326;-70
2022/12/31 03:02:39;;;;;;;;;;;24.80;99.90;;;;;;5014694;28;20328;-70
2022/12/31 03:05:07;;;;;;;;;;;24.80;99.90;;;;;;5014290;28;19909;-69
2022/12/31 03:07:33;;;;;;;;;;;24.80;99.90;;;;;;5013675;28;19946;-68
2022/12/31 03:10:00;;;;;;;;;;;24.60;99.90;;;;;;5014084;28;19918;-67
2022/12/31 03:12:47;;;;;;;;;;;24.60;99.90;;;;;;5014293;28;19952;-68
2022/12/31 03:15:21;;;;;;;;;;;24.60;99.90;;;;;;5014117;28;19916;-71
2022/12/31 03:17:52;;;;;;;;;;;24.50;99.90;;;;;;5013933;28;19910;-66
2022/12/31 03:23:06;;;;;;;;;;;24.30;99.90;;;;;;5014476;28;20001;-67
2022/12/31 03:25:36;;;;;;;;;;;24.40;99.90;;;;;;5013679;28;20000;-67
2022/12/31 03:28:04;;;;;;;;;;;24.40;99.90;;;;;;5004473;28;19917;-73
2022/12/31 03:30:32;;;;;;;;;;;24.40;99.90;;;;;;5006926;28;19927;-70
2022/12/31 03:32:58;;;;;;;;;;;24.40;99.90;;;;;;5005443;28;19964;-66
2022/12/31 03:35:28;;;;;;;;;;;24.40;99.90;;;;;;5009187;28;19925;-66
2022/12/31 03:37:55;;;;;;;;;;;24.30;99.90;;;;;;5005176;28;20339;-66
2022/12/31 03:40:23;;;;;;;;;;;24.20;99.90;;;;;;5005339;28;19914;-69
2022/12/31 03:42:50;;;;;;;;;;;24.00;99.90;;;;;;5005708;28;19913;-72
2022/12/31 03:45:16;;;;;;;;;;;23.50;99.90;;;;;;5005214;28;19924;-73
2022/12/31 03:47:43;;;;;;;;;;;23.30;99.90;;;;;;5005390;28;20004;-68
2022/12/31 03:50:11;;;;;;;;;;;23.00;99.90;;;;;;5008051;28;20369;-69
2022/12/31 03:52:38;;;;;;;;;;;22.70;99.90;;;;;;5025260;28;19918;-66
2022/12/31 03:55:05;;;;;;;;;;;22.40;99.90;;;;;;5025431;28;19996;-67
2022/12/31 03:57:32;;;;;;;;;;;22.30;99.90;;;;;;5017251;28;20794;-70
2022/12/31 03:59:58;;;;;;;;;;;22.20;99.90;;;;;;5004384;28;19922;-72
2022/12/31 04:02:25;;;;;;;;;;;22.20;99.90;;;;;;5008191;28;19917;-66
2022/12/31 04:04:52;;;;;;;;;;;22.30;99.90;;;;;;4995520;28;19948;-71
2022/12/31 04:07:18;;;;;;;;;;;22.40;99.90;;;;;;5007380;28;20220;-70
2022/12/31 04:09:45;;;;;;;;;;;22.50;99.90;;;;;;5004289;28;19925;-72
2022/12/31 04:12:12;;;;;;;;;;;22.60;99.90;;;;;;5004593;28;19936;-68
2022/12/31 04:14:38;;;;;;;;;;;22.70;99.90;;;;;;5004952;28;19949;-67
2022/12/31 04:17:05;;;;;;;;;;;22.70;99.90;;;;;;5005271;28;20447;-71
2022/12/31 04:19:31;;;;;;;;;;;22.70;99.90;;;;;;5005325;28;19989;-70
2022/12/31 04:21:58;;;;;;;;;;;22.80;99.90;;;;;;5005988;28;19937;-72
2022/12/31 04:24:25;;;;;;;;;;;22.80;99.90;;;;;;5006184;28;19949;-68
2022/12/31 04:26:52;;;;;;;;;;;22.90;99.90;;;;;;5005441;28;20368;-71
2022/12/31 04:29:19;;;;;;;;;;;22.90;99.90;;;;;;5002750;28;19933;-71
2022/12/31 04:31:45;;;;;;;;;;;23.00;99.90;;;;;;5005399;28;20005;-68
2022/12/31 04:34:12;;;;;;;;;;;23.10;99.90;;;;;;5005005;28;20241;-74
2022/12/31 04:36:42;;;;;;;;;;;23.10;99.90;;;;;;5003901;28;20552;-74
2022/12/31 04:39:09;;;;;;;;;;;23.00;99.90;;;;;;5006354;28;19921;-73
2022/12/31 04:41:36;;;;;;;;;;;23.00;99.90;;;;;;5008719;28;19921;-72
2022/12/31 04:44:02;;;;;;;;;;;23.10;99.90;;;;;;5006711;28;20012;-72
2022/12/31 04:46:30;;;;;;;;;;;23.10;99.90;;;;;;5004995;28;20404;-68
2022/12/31 04:48:57;;;;;;;;;;;23.20;99.90;;;;;;5015775;28;20011;-71
2022/12/31 04:51:25;;;;;;;;;;;23.20;99.90;;;;;;5003562;28;19922;-69
2022/12/31 04:53:52;;;;;;;;;;;23.30;99.90;;;;;;5005879;28;20263;-66
2022/12/31 04:56:19;;;;;;;;;;;23.30;99.90;;;;;;5009231;28;19913;-70
2022/12/31 04:58:46;;;;;;;;;;;23.40;99.90;;;;;;5007374;28;19921;-70
2022/12/31 05:01:14;;;;;;;;;;;23.50;99.90;;;;;;5005398;28;20562;-66
2022/12/31 05:03:41;;;;;;;;;;;23.60;99.90;;;;;;5005185;28;19913;-77
2022/12/31 05:06:12;;;;;;;;;;;23.70;99.90;;;;;;5006544;28;20000;-76
2022/12/31 05:08:38;;;;;;;;;;;23.80;99.90;;;;;;5009101;28;19924;-67
2022/12/31 05:11:05;;;;;;;;;;;23.90;99.90;;;;;;5009035;28;19924;-73
2022/12/31 05:13:32;;;;;;;;;;;23.90;99.90;;;;;;5005089;28;19921;-70
2022/12/31 05:15:58;;;;;;;;;;;23.90;99.90;;;;;;5004956;28;20406;-70
2022/12/31 05:18:25;;;;;;;;;;;23.90;99.90;;;;;;5005358;28;19924;-76
2022/12/31 05:20:51;;;;;;;;;;;24.00;99.90;;;;;;5006470;28;19920;-71
2022/12/31 05:23:18;;;;;;;;;;;24.00;99.90;;;;;;5004416;28;19913;-78
2022/12/31 05:25:46;;;;;;;;;;;24.00;99.90;;;;;;5004101;28;19917;-74
2022/12/31 05:28:12;;;;;;;;;;;24.00;99.90;;;;;;5003760;28;20269;-79
2022/12/31 05:30:39;;;;;;;;;;;24.00;99.90;;;;;;5004986;28;19929;-77
2022/12/31 05:33:06;;;;;;;;;;;24.00;99.90;;;;;;5004366;28;20134;-81
2022/12/31 05:35:32;;;;;;;;;;;24.00;99.90;;;;;;5003552;28;20011;-77
2022/12/31 05:38:00;;;;;;;;;;;23.90;99.90;;;;;;5004255;28;19928;-74
2022/12/31 05:40:27;;;;;;;;;;;23.80;99.90;;;;;;5004516;28;20011;-78
2022/12/31 05:42:53;;;;;;;;;;;23.80;99.90;;;;;;5002057;28;19925;-75
2022/12/31 05:45:20;;;;;;;;;;;23.80;99.90;;;;;;5004478;28;19957;-74
2022/12/31 05:47:47;;;;;;;;;;;23.70;99.90;;;;;;5004042;28;19949;-74
2022/12/31 05:50:17;;;;;;;;;;;23.70;99.90;;;;;;5004933;28;19928;-77
2022/12/31 05:52:44;;;;;;;;;;;23.70;99.90;;;;;;5006961;28;20390;-71
2022/12/31 05:55:12;;;;;;;;;;;23.80;99.90;;;;;;5006981;28;19966;-78
2022/12/31 05:57:38;;;;;;;;;;;23.70;99.90;;;;;;5007670;28;19917;-77
2022/12/31 06:00:06;;;;;;;;;;;23.70;99.90;;;;;;5007132;28;20360;-77
2022/12/31 06:02:32;;;;;;;;;;;23.70;99.90;;;;;;5007039;28;19918;-76
2022/12/31 06:04:59;;;;;;;;;;;23.80;99.90;;;;;;5006867;28;20008;-73
2022/12/31 06:07:26;;;;;;;;;;;23.90;99.90;;;;;;5007078;28;19953;-77
2022/12/31 06:09:52;;;;;;;;;;;24.00;99.90;;;;;;5007498;28;19956;-80
2022/12/31 06:12:19;;;;;;;;;;;24.00;99.90;;;;;;5007356;28;20337;-79
2022/12/31 06:14:46;;;;;;;;;;;24.00;99.90;;;;;;5006910;28;19953;-79
2022/12/31 06:17:12;;;;;;;;;;;24.10;99.90;;;;;;5005798;28;19999;-76
2022/12/31 06:19:43;;;;;;;;;;;24.00;99.90;;;;;;5006930;28;20550;-78
2022/12/31 06:22:10;;;;;;;;;;;23.90;99.90;;;;;;5005723;28;19940;-79
2022/12/31 06:24:37;;;;;;;;;;;23.80;99.90;;;;;;5007298;28;19925;-80
2022/12/31 06:27:03;;;;;;;;;;;23.70;99.90;;;;;;5005393;28;20001;-77
2022/12/31 06:29:30;;;;;;;;;;;23.70;99.90;;;;;;5006751;28;19928;-77
2022/12/31 06:31:57;;;;;;;;;;;23.60;99.90;;;;;;5006040;28;20383;-80
2022/12/31 06:34:23;;;;;;;;;;;23.60;99.90;;;;;;5006756;28;19925;-76
2022/12/31 06:36:50;;;;;;;;;;;23.50;99.90;;;;;;5006438;28;19917;-79
2022/12/31 06:39:17;;;;;;;;;;;23.40;99.90;;;;;;5004648;28;20042;-75
2022/12/31 06:41:43;;;;;;;;;;;23.40;99.90;;;;;;5009720;28;20288;-78
2022/12/31 06:44:10;;;;;;;;;;;23.40;99.90;;;;;;5004652;28;19925;-78
2022/12/31 06:46:37;;;;;;;;;;;23.40;99.90;;;;;;5005697;28;20394;-77
2022/12/31 06:49:03;;;;;;;;;;;23.50;99.90;;;;;;5009739;28;19921;-80
2022/12/31 06:51:30;;;;;;;;;;;23.40;99.90;;;;;;5007711;28;19964;-80
2022/12/31 06:53:56;;;;;;;;;;;23.40;99.90;;;;;;5006951;28;20438;-80
2022/12/31 06:56:30;;;;;;;;;;;23.50;99.90;;;;;;5006464;28;19917;-81
2022/12/31 06:59:00;;;;;;;;;;;23.50;99.90;;;;;;5005274;28;20206;-78
2022/12/31 07:01:34;;;;;;;;;;;23.40;99.90;;;;;;5005394;28;20397;-80
2022/12/31 07:04:04;;;;;;;;;;;23.30;99.90;;;;;;5006117;28;19925;-74
2022/12/31 07:06:35;;;;;;;;;;;23.30;99.90;;;;;;5002778;28;20677;-79
2022/12/31 07:09:09;;;;;;;;;;;23.30;99.90;;;;;;5007800;28;19917;-75
2022/12/31 07:11:43;;;;;;;;;;;23.20;99.90;;;;;;5024260;28;19921;-77
2022/12/31 07:14:17;;;;;;;;;;;23.20;99.90;;;;;;5006439;28;19959;-79
2022/12/31 07:16:57;;;;;;;;;;;23.10;99.90;;;;;;5006036;28;19918;-81
2022/12/31 07:19:33;;;;;;;;;;;23.00;99.90;;;;;;5015131;28;19967;-80
2022/12/31 07:22:00;;;;;;;;;;;22.90;99.90;;;;;;5005607;28;20476;-77
2022/12/31 07:24:27;;;;;;;;;;;22.90;99.90;;;;;;5017131;28;19917;-70
2022/12/31 07:26:56;;;;;;;;;;;22.90;99.90;;;;;;5006637;28;19928;-68
2022/12/31 07:29:29;;;;;;;;;;;22.90;99.90;;;;;;5005787;28;19925;-78
2022/12/31 07:32:01;;;;;;;;;;;22.90;99.90;;;;;;5005908;28;19956;-80
2022/12/31 07:34:38;;;;;;;;;;;22.80;99.90;;;;;;5006915;28;20353;-79
2022/12/31 07:37:27;;;;;;;;;;;22.80;99.90;;;;;;5008205;28;20025;-80
2022/12/31 07:40:24;;;;;;;;;;;22.80;99.90;;;;;;4988502;28;19925;-79
2022/12/31 07:42:56;;;;;;;;;;;22.90;99.90;;;;;;4985764;28;19936;-76
2022/12/31 07:45:29;;;;;;;;;;;22.90;99.90;;;;;;5000259;28;19955;-82
2022/12/31 07:47:56;;;;;;;;;;;22.90;99.90;;;;;;5007964;28;19925;-81
2022/12/31 07:50:23;;;;;;;;;;;22.80;99.90;;;;;;5010889;28;20033;-78
2022/12/31 07:52:49;;;;;;;;;;;22.80;99.90;;;;;;5014589;28;19916;-80
2022/12/31 07:55:16;;;;;;;;;;;22.80;99.90;;;;;;5014663;28;20017;-79
2022/12/31 07:57:51;;;;;;;;;;;22.80;99.90;;;;;;5014240;28;19963;-80
2022/12/31 08:00:18;;;;;;;;;;;22.80;99.90;;;;;;5014321;28;19918;-76
2022/12/31 08:02:56;;;;;;;;;;;22.80;99.90;;;;;;5014235;28;19921;-80
2022/12/31 08:05:25;;;;;;;;;;;22.70;99.90;;;;;;5013411;28;20009;-77
2022/12/31 08:08:06;;;;;;;;;;;22.70;99.90;;;;;;5013282;28;19909;-80
2022/12/31 08:10:33;;;;;;;;;;;22.70;99.90;;;;;;5013440;28;20356;-80
2022/12/31 08:13:04;;;;;;;;;;;22.70;99.90;;;;;;5014945;28;20351;-80
2022/12/31 08:15:31;;;;;;;;;;;22.70;99.90;;;;;;5013961;28;19916;-79
2022/12/31 08:17:58;;;;;;;;;;;22.60;99.90;;;;;;5013993;28;20343;-80
2022/12/31 08:20:25;;;;;;;;;;;22.60;99.90;;;;;;5014160;28;19992;-79
2022/12/31 08:22:57;;;;;;;;;;;22.60;99.90;;;;;;5015835;28;19917;-77
2022/12/31 08:26:02;;;;;;;;;;;22.70;99.90;;;;;;5015642;28;19945;-81
2022/12/31 08:28:38;;;;;;;;;;;22.70;99.90;;;;;;4993099;28;20464;-79
2022/12/31 08:31:15;;;;;;;;;;;22.70;99.90;;;;;;4992677;28;19988;-79
2022/12/31 08:33:54;;;;;;;;;;;22.70;99.90;;;;;;5005001;28;19922;-77
2022/12/31 08:36:27;;;;;;;;;;;22.70;99.90;;;;;;5017004;28;19918;-80
2022/12/31 08:38:56;;;;;;;;;;;22.60;99.90;;;;;;5012809;28;19917;-78
2022/12/31 08:41:35;;;;;;;;;;;22.60;99.90;;;;;;5012220;28;19909;-79
2022/12/31 08:44:04;;;;;;;;;;;22.50;99.90;;;;;;5011846;28;20291;-78
2022/12/31 08:46:31;;;;;;;;;;;22.50;99.90;;;;;;5012357;28;20326;-79
2022/12/31 08:48:58;;;;;;;;;;;22.50;99.90;;;;;;5011807;28;19918;-80
2022/12/31 08:51:26;;;;;;;;;;;22.50;99.90;;;;;;5012271;28;19968;-80
2022/12/31 08:53:54;;;;;;;;;;;22.60;99.90;;;;;;5012021;28;19913;-80
2022/12/31 08:56:20;;;;;;;;;;;22.60;99.90;;;;;;5012483;28;19914;-80
2022/12/31 08:59:00;;;;;;;;;;;22.50;99.90;;;;;;5012106;28;19910;-80
2022/12/31 09:01:30;;;;;;;;;;;22.60;99.90;;;;;;5012150;28;20342;-79
2022/12/31 09:04:03;;;;;;;;;;;22.50;99.90;;;;;;5012392;28;19920;-80
2022/12/31 09:06:38;;;;;;;;;;;22.50;99.90;;;;;;5012230;28;19995;-79
2022/12/31 09:09:23;;;;;;;;;;;22.60;99.90;;;;;;5011848;28;19919;-79
2022/12/31 09:11:58;;;;;;;;;;;22.50;99.90;;;;;;5012411;28;20005;-79
2022/12/31 09:14:46;;;;;;;;;;;22.50;99.90;;;;;;5011932;28;19918;-80
2022/12/31 09:17:25;;;;;;;;;;;22.50;99.90;;;;;;5011680;28;20273;-78
2022/12/31 09:19:51;;;;;;;;;;;22.50;99.90;;;;;;5011835;28;19913;-80
2022/12/31 09:22:18;;;;;;;;;;;22.50;99.90;;;;;;5011989;28;20328;-77
2022/12/31 09:24:45;;;;;;;;;;;22.50;99.90;;;;;;5011834;28;20008;-80
2022/12/31 09:27:23;;;;;;;;;;;22.40;99.90;;;;;;5012020;28;19910;-80
2022/12/31 09:30:02;;;;;;;;;;;22.40;99.90;;;;;;4997041;28;19926;-80
2022/12/31 09:32:49;;;;;;;;;;;22.40;99.90;;;;;;5012333;28;19921;-81
2022/12/31 09:35:25;;;;;;;;;;;22.40;99.90;;;;;;5011920;28;19921;-79
2022/12/31 09:37:58;;;;;;;;;;;22.40;99.90;;;;;;5011793;28;19916;-81
2022/12/31 09:40:36;;;;;;;;;;;22.40;99.90;;;;;;5009206;28;20007;-78
2022/12/31 09:43:25;;;;;;;;;;;22.40;99.90;;;;;;5012385;28;19939;-81
2022/12/31 09:46:11;;;;;;;;;;;22.40;99.90;;;;;;5012085;28;19952;-80
2022/12/31 09:49:05;;;;;;;;;;;22.30;99.90;;;;;;5011826;28;19993;-79
2022/12/31 09:51:32;;;;;;;;;;;22.20;99.90;;;;;;5011515;28;20377;-67
2022/12/31 09:54:14;;;;;;;;;;;22.30;99.90;;;;;;5011853;28;19988;-79
2022/12/31 09:56:46;;;;;;;;;;;22.30;99.90;;;;;;5011703;28;20000;-74
2022/12/31 09:59:22;;;;;;;;;;;22.30;99.90;;;;;;5011741;28;20322;-73
2022/12/31 10:01:52;;;;;;;;;;;22.30;99.90;;;;;;5010211;28;19921;-72
2022/12/31 10:04:38;;;;;;;;;;;22.30;99.90;;;;;;5011233;28;19963;-70
2022/12/31 10:07:05;;;;;;;;;;;22.30;99.90;;;;;;5011753;28;19913;-72
2022/12/31 10:09:50;;;;;;;;;;;22.20;99.90;;;;;;5010609;28;20064;-69
2022/12/31 10:12:34;;;;;;;;;;;22.20;99.90;;;;;;5011208;28;19914;-78
2022/12/31 10:15:19;;;;;;;;;;;22.20;99.90;;;;;;5010642;28;19918;-74
2022/12/31 10:17:52;;;;;;;;;;;22.30;99.90;;;;;;5001413;28;20418;-80
2022/12/31 10:20:25;;;;;;;;;;;22.30;99.90;;;;;;5011970;28;20372;-79
2022/12/31 10:23:09;;;;;;;;;;;22.20;99.90;;;;;;5008384;28;19914;-77
2022/12/31 10:25:48;;;;;;;;;;;22.30;99.90;;;;;;5010903;28;19913;-74
2022/12/31 10:28:22;;;;;;;;;;;22.30;99.90;;;;;;5010833;28;20566;-75
2022/12/31 10:31:07;;;;;;;;;;;22.30;99.90;;;;;;5011231;28;19925;-67
2022/12/31 10:33:43;;;;;;;;;;;22.20;99.90;;;;;;5011384;28;19913;-66
2022/12/31 10:36:28;;;;;;;;;;;22.20;99.90;;;;;;5011556;28;19921;-75
2022/12/31 10:39:00;;;;;;;;;;;22.20;99.90;;;;;;5014561;28;19910;-68
2022/12/31 10:41:33;;;;;;;;;;;22.20;99.90;;;;;;5014848;28;20371;-71
2022/12/31 10:44:06;;;;;;;;;;;22.20;99.90;;;;;;5014806;28;19920;-70
2022/12/31 10:46:50;;;;;;;;;;;22.20;99.90;;;;;;5014823;28;19909;-72
2022/12/31 10:49:23;;;;;;;;;;;22.20;99.90;;;;;;5014358;28;19922;-67
2022/12/31 10:51:56;;;;;;;;;;;22.20;99.90;;;;;;5014931;28;19914;-71
2022/12/31 10:54:22;;;;;;;;;;;22.20;99.90;;;;;;5014751;28;19909;-67
2022/12/31 10:56:49;;;;;;;;;;;22.20;99.90;;;;;;5014680;28;19920;-71
2022/12/31 10:59:18;;;;;;;;;;;22.20;99.90;;;;;;5014623;28;19937;-70
2022/12/31 11:01:51;;;;;;;;;;;22.20;99.90;;;;;;5015149;28;19910;-69
2022/12/31 11:04:24;;;;;;;;;;;22.20;99.90;;;;;;5014790;28;20375;-66
2022/12/31 11:06:53;;;;;;;;;;;22.20;99.90;;;;;;5014350;28;19913;-66
2022/12/31 11:09:31;;;;;;;;;;;22.20;99.90;;;;;;5014223;28;19957;-76
2022/12/31 11:12:06;;;;;;;;;;;22.20;99.90;;;;;;5014623;28;20381;-68
2022/12/31 11:14:59;;;;;;;;;;;22.10;99.90;;;;;;5014043;28;19916;-71
2022/12/31 11:17:26;;;;;;;;;;;22.10;99.90;;;;;;5011945;28;19936;-70
2022/12/31 11:20:15;;;;;;;;;;;22.10;99.90;;;;;;5014442;28;19909;-68
2022/12/31 11:22:42;;;;;;;;;;;22.10;99.90;;;;;;5014309;28;19913;-72
2022/12/31 11:25:12;;;;;;;;;;;22.10;99.90;;;;;;5014538;28;20415;-74
2022/12/31 11:28:01;;;;;;;;;;;22.10;99.90;;;;;;5014022;28;19914;-71
2022/12/31 11:30:46;;;;;;;;;;;22.00;99.90;;;;;;5008568;28;19926;-73
2022/12/31 11:33:31;;;;;;;;;;;22.00;99.90;;;;;;5014350;28;19920;-73
2022/12/31 11:36:03;;;;;;;;;;;22.00;99.90;;;;;;5014345;28;19934;-80
2022/12/31 11:38:36;;;;;;;;;;;22.00;99.90;;;;;;5013808;28;19910;-81
2022/12/31 11:41:10;;;;;;;;;;;21.90;99.90;;;;;;5014191;28;19910;-81
2022/12/31 11:43:37;;;;;;;;;;;22.00;99.90;;;;;;5013910;28;19920;-77
2022/12/31 11:46:17;;;;;;;;;;;22.00;99.90;;;;;;5014009;28;20257;-79
2022/12/31 11:48:44;;;;;;;;;;;22.00;99.90;;;;;;5013187;28;19916;-68
2022/12/31 11:51:13;;;;;;;;;;;22.00;99.90;;;;;;5013927;28;19964;-73
2022/12/31 11:53:43;;;;;;;;;;;22.00;99.90;;;;;;5013828;28;19914;-76
2022/12/31 11:56:21;;;;;;;;;;;22.00;99.90;;;;;;5013733;28;19916;-74
2022/12/31 11:58:52;;;;;;;;;;;22.00;99.90;;;;;;5013035;28;19919;-71
2022/12/31 12:01:44;;;;;;;;;;;22.00;99.90;;;;;;5013471;28;19910;-77
2022/12/31 12:04:11;;;;;;;;;;;22.00;99.90;;;;;;5012119;28;19936;-71
2022/12/31 12:06:39;;;;;;;;;;;22.00;99.90;;;;;;5013142;28;19920;-71
2022/12/31 12:09:07;;;;;;;;;;;22.00;99.90;;;;;;5013724;28;19910;-68
2022/12/31 12:11:39;;;;;;;;;;;22.00;99.90;;;;;;5013405;28;20391;-75
2022/12/31 12:14:20;;;;;;;;;;;22.00;99.90;;;;;;5013205;28;19916;-76
2022/12/31 12:16:52;;;;;;;;;;;22.00;99.90;;;;;;5013197;28;19941;-80
2022/12/31 12:19:18;;;;;;;;;;;21.90;99.90;;;;;;5013446;28;19917;-72
2022/12/31 12:21:46;;;;;;;;;;;21.90;99.90;;;;;;5013237;28;20021;-79
2022/12/31 12:24:31;;;;;;;;;;;21.90;99.90;;;;;;5013462;28;19917;-74
2022/12/31 12:26:57;;;;;;;;;;;21.90;99.90;;;;;;5013028;28;20000;-79
2022/12/31 12:29:30;;;;;;;;;;;21.90;99.90;;;;;;5012665;28;19924;-72
2022/12/31 12:31:58;;;;;;;;;;;21.90;99.90;;;;;;5013268;28;20637;-74
2022/12/31 12:34:27;;;;;;;;;;;21.90;99.90;;;;;;5012954;28;19949;-70
2022/12/31 12:36:54;;;;;;;;;;;21.90;99.90;;;;;;5012741;28;20340;-73
2022/12/31 12:39:22;;;;;;;;;;;21.90;99.90;;;;;;5012838;28;19956;-78
2022/12/31 12:42:10;;;;;;;;;;;21.90;99.90;;;;;;5012890;28;19909;-72
2022/12/31 12:44:38;;;;;;;;;;;21.90;99.90;;;;;;5012803;28;19910;-77
2022/12/31 12:47:06;;;;;;;;;;;22.00;99.90;;;;;;5012651;28;19914;-71
2022/12/31 12:49:40;;;;;;;;;;;22.00;99.90;;;;;;5012581;28;19921;-70
2022/12/31 12:52:25;;;;;;;;;;;21.90;99.90;;;;;;5012750;28;19956;-78
2022/12/31 12:54:54;;;;;;;;;;;21.90;99.90;;;;;;5012861;28;19949;-80
2022/12/31 12:57:44;;;;;;;;;;;21.90;99.90;;;;;;5012323;28;19913;-74
2022/12/31 13:00:21;;;;;;;;;;;21.90;99.90;;;;;;5011512;28;19909;-79
2022/12/31 13:02:48;;;;;;;;;;;21.80;99.90;;;;;;5012629;28;19917;-69
2022/12/31 13:05:28;;;;;;;;;;;21.80;99.90;;;;;;5012479;28;19910;-80
2022/12/31 13:08:31;;;;;;;;;;;21.80;99.90;;;;;;5012589;28;20287;-75
2022/12/31 13:11:03;;;;;;;;;;;21.80;99.90;;;;;;4971186;28;19958;-66
2022/12/31 13:13:36;;;;;;;;;;;21.70;99.90;;;;;;5005892;28;19910;-73
2022/12/31 13:16:06;;;;;;;;;;;21.80;99.90;;;;;;5012676;28;19910;-76
2022/12/31 13:18:38;;;;;;;;;;;21.80;99.90;;;;;;5012054;28;20257;-79
2022/12/31 13:21:08;;;;;;;;;;;21.80;99.90;;;;;;5012524;28;19909;-72
2022/12/31 13:23:34;;;;;;;;;;;21.80;99.90;;;;;;5012299;28;20008;-74
2022/12/31 13:26:15;;;;;;;;;;;21.90;99.90;;;;;;5012426;28;19932;-78
2022/12/31 13:28:44;;;;;;;;;;;21.90;99.90;;;;;;5012009;28;19910;-69
2022/12/31 13:31:20;;;;;;;;;;;21.90;99.90;;;;;;5012605;28;19917;-70
2022/12/31 13:33:54;;;;;;;;;;;21.90;99.90;;;;;;5012110;28;19991;-78
2022/12/31 13:36:23;;;;;;;;;;;21.90;99.90;;;;;;5012057;28;19924;-80
2022/12/31 13:38:51;;;;;;;;;;;21.90;99.90;;;;;;5012610;28;19956;-74
2022/12/31 13:41:24;;;;;;;;;;;21.90;99.90;;;;;;5012424;28;19943;-75
2022/12/31 13:43:51;;;;;;;;;;;21.90;99.90;;;;;;5012219;28;20335;-77
2022/12/31 13:46:18;;;;;;;;;;;21.90;99.90;;;;;;5012073;28;19920;-79
2022/12/31 13:49:04;;;;;;;;;;;21.90;99.90;;;;;;5012512;28;19910;-79
2022/12/31 13:51:48;;;;;;;;;;;21.90;99.90;;;;;;5011912;28;19945;-75
2022/12/31 13:54:15;;;;;;;;;;;21.90;99.90;;;;;;5012611;28;20336;-70
2022/12/31 13:56:42;;;;;;;;;;;21.90;99.90;;;;;;5011936;28;19916;-77
2022/12/31 13:59:12;;;;;;;;;;;21.90;99.90;;;;;;5011835;28;19921;-79
2022/12/31 14:01:56;;;;;;;;;;;21.90;99.90;;;;;;5011998;28;19913;-79
2022/12/31 14:04:41;;;;;;;;;;;21.90;99.90;;;;;;5012243;28;19914;-78
2022/12/31 14:07:11;;;;;;;;;;;22.00;99.90;;;;;;5011847;28;20286;-82
2022/12/31 14:09:37;;;;;;;;;;;21.90;99.90;;;;;;5012003;28;20559;-75
2022/12/31 14:12:04;;;;;;;;;;;21.90;99.90;;;;;;5014648;28;19921;-80
2022/12/31 14:14:31;;;;;;;;;;;21.90;99.90;;;;;;5015796;28;19909;-79
2022/12/31 14:16:58;;;;;;;;;;;21.90;99.90;;;;;;5015544;28;19945;-77
2022/12/31 14:19:37;;;;;;;;;;;21.90;99.90;;;;;;5015797;28;19952;-76
2022/12/31 14:22:07;;;;;;;;;;;21.90;99.90;;;;;;5015630;28;19916;-79
2022/12/31 14:24:45;;;;;;;;;;;21.90;99.90;;;;;;5015757;28;19913;-80
2022/12/31 14:27:25;;;;;;;;;;;21.90;99.90;;;;;;5015167;28;20016;-69
2022/12/31 14:29:51;;;;;;;;;;;22.00;99.90;;;;;;5015592;28;19921;-78
2022/12/31 14:32:21;;;;;;;;;;;22.00;99.90;;;;;;5015577;28;20287;-78
2022/12/31 14:34:53;;;;;;;;;;;22.00;99.90;;;;;;5015921;28;19937;-80
2022/12/31 14:37:29;;;;;;;;;;;22.00;99.90;;;;;;5014951;28;19910;-80
2022/12/31 14:39:59;;;;;;;;;;;22.00;99.90;;;;;;5016421;28;20273;-87
2022/12/31 14:42:34;;;;;;;;;;;22.00;99.90;;;;;;5015710;28;19952;-77
2022/12/31 14:45:19;;;;;;;;;;;21.90;99.90;;;;;;5015067;28;20346;-77